Time;durP1;ratioP1;P1;durP2;ratioP2;P2;SDS_P1;SDS_P2;PMS_P1;PMS_P2;Temp;Humidity;BMP_temperature;BMP_pressure;BME280_temperature;BME280_humidity;BME280_pressure;Samples;Min_cycle;Max_cycle;Signal;HPM_P1;HPM_P2
2023/08/28 00:00:31;;;;;;;6.03;3.60;;;;;;;12.68;100.00;101014.47;5037984;28;20142;-71
2023/08/28 00:02:57;;;;;;;3.78;3.47;;;;;;;12.62;100.00;101017.47;5037275;28;20029;-71
2023/08/28 00:05:22;;;;;;;3.65;3.35;;;;;;;12.63;100.00;101012.06;5038543;28;20104;-71
2023/08/28 00:07:47;;;;;;;3.95;3.47;;;;;;;12.59;100.00;101010.53;5040188;28;20029;-72
2023/08/28 00:10:13;;;;;;;4.00;3.22;;;;;;;12.57;100.00;101003.53;5037570;28;20036;-71
2023/08/28 00:12:40;;;;;;;4.13;3.53;;;;;;;12.56;100.00;101005.34;5035239;28;20315;-70
2023/08/28 00:15:09;;;;;;;4.10;3.47;;;;;;;12.51;100.00;101006.56;5036435;28;20025;-71
2023/08/28 00:17:36;;;;;;;4.00;3.60;;;;;;;12.42;100.00;101003.47;5046933;28;20025;-72
2023/08/28 00:20:03;;;;;;;4.70;3.80;;;;;;;12.44;100.00;101001.56;5035684;28;21005;-72
2023/08/28 00:22:28;;;;;;;4.35;3.65;;;;;;;12.39;100.00;101000.97;5045697;28;20092;-71
2023/08/28 00:24:54;;;;;;;5.47;3.53;;;;;;;12.35;100.00;101002.06;5041848;28;20552;-71
2023/08/28 00:27:19;;;;;;;4.85;3.70;;;;;;;12.30;100.00;101001.47;5038983;28;20036;-71
2023/08/28 00:29:44;;;;;;;4.30;3.90;;;;;;;12.28;100.00;100997.16;5034781;28;20027;-71
2023/08/28 00:32:10;;;;;;;4.13;3.78;;;;;;;12.27;100.00;100995.44;5037705;28;20021;-72
2023/08/28 00:34:35;;;;;;;4.85;3.88;;;;;;;12.21;100.00;100989.50;5036389;28;20087;-72
2023/08/28 00:37:00;;;;;;;5.28;3.85;;;;;;;12.16;100.00;100988.91;5038441;28;20432;-72
2023/08/28 00:39:27;;;;;;;4.63;4.22;;;;;;;12.17;100.00;100989.78;5032093;28;20040;-71
2023/08/28 00:41:53;;;;;;;5.07;3.92;;;;;;;12.10;100.00;100983.03;5038857;28;20068;-71
2023/08/28 00:44:18;;;;;;;5.07;4.20;;;;;;;12.01;100.00;100970.22;5027613;28;20478;-70
2023/08/28 00:46:44;;;;;;;6.10;4.32;;;;;;;12.00;100.00;100974.69;5026950;28;20133;-71
2023/08/28 00:49:11;;;;;;;4.43;4.03;;;;;;;11.99;100.00;100977.41;5035389;28;20032;-70
2023/08/28 00:51:37;;;;;;;4.68;4.28;;;;;;;11.87;100.00;100986.94;5043054;28;20044;-71
2023/08/28 00:54:03;;;;;;;6.43;4.40;;;;;;;11.82;100.00;100986.31;5044235;28;20029;-72
2023/08/28 00:56:29;;;;;;;5.63;4.13;;;;;;;11.86;100.00;100991.41;5054276;28;20411;-71
2023/08/28 00:58:54;;;;;;;6.85;4.60;;;;;;;11.81;100.00;100996.09;5042501;28;20404;-71
2023/08/28 01:01:20;;;;;;;4.93;4.43;;;;;;;11.80;100.00;100989.06;5047903;28;20417;-70
2023/08/28 01:03:46;;;;;;;4.90;4.50;;;;;;;11.83;100.00;100991.59;5050735;28;20052;-70
2023/08/28 01:06:29;;;;;;;6.00;5.40;;;;;;;11.82;100.00;100989.81;5047522;28;20102;-69
2023/08/28 01:09:46;;;;;;;5.68;4.85;;;;;;;11.78;100.00;100993.59;5040010;28;20033;-71
2023/08/28 01:12:21;;;;;;;6.25;5.20;;;;;;;11.76;100.00;100989.31;5033394;28;20519;-71
2023/08/28 01:14:54;;;;;;;6.43;5.68;;;;;;;11.70;100.00;100983.38;5037842;28;20110;-71
2023/08/28 01:17:23;;;;;;;6.32;5.68;;;;;;;11.68;100.00;100987.03;5030013;28;20180;-70
2023/08/28 01:19:50;;;;;;;6.53;5.78;;;;;;;11.72;100.00;100988.59;5033664;28;20459;-70
2023/08/28 01:22:18;;;;;;;8.02;5.97;;;;;;;11.69;100.00;100984.28;5012897;28;20032;-71
2023/08/28 01:24:48;;;;;;;8.07;6.30;;;;;;;11.62;100.00;100982.03;5036225;28;20049;-71
2023/08/28 01:27:14;;;;;;;5.57;5.03;;;;;;;11.59;100.00;100977.72;5035164;28;20144;-71
2023/08/28 01:29:40;;;;;;;6.35;5.78;;;;;;;11.57;100.00;100971.59;5037221;28;20147;-70
2023/08/28 01:32:05;;;;;;;6.35;5.45;;;;;;;11.53;100.00;100972.72;5035506;28;20043;-72
2023/08/28 01:34:31;;;;;;;6.80;5.88;;;;;;;11.55;100.00;100969.97;5031158;28;20085;-69
2023/08/28 01:37:07;;;;;;;7.93;6.25;;;;;;;11.53;100.00;100977.19;5030823;28;20087;-69
2023/08/28 01:39:41;;;;;;;7.30;6.50;;;;;;;11.48;100.00;100972.09;5031528;28;20487;-70
2023/08/28 01:42:09;;;;;;;7.05;6.28;;;;;;;11.45;100.00;100964.25;5028310;28;20033;-70
2023/08/28 01:44:36;;;;;;;7.22;6.50;;;;;;;11.46;100.00;100966.84;5039220;28;20144;-70
2023/08/28 01:47:02;;;;;;;7.40;6.63;;;;;;;11.45;100.00;100969.59;5046447;28;20057;-70
2023/08/28 01:49:29;;;;;;;9.23;7.07;;;;;;;11.47;100.00;100965.91;5042745;28;20507;-70
2023/08/28 01:51:55;;;;;;;9.02;6.70;;;;;;;11.42;100.00;100959.97;5042950;28;20049;-70
2023/08/28 01:54:21;;;;;;;7.43;6.43;;;;;;;11.37;100.00;100954.03;5039972;28;20040;-71
2023/08/28 01:56:48;;;;;;;7.90;7.10;;;;;;;11.40;100.00;100953.84;5047481;28;20032;-70
2023/08/28 01:59:14;;;;;;;7.95;6.80;;;;;;;11.34;100.00;100943.50;5041018;28;20088;-70
2023/08/28 02:01:40;;;;;;;7.75;7.03;;;;;;;11.36;100.00;100954.94;5048402;28;20044;-70
2023/08/28 02:04:05;;;;;;;8.05;7.25;;;;;;;11.37;100.00;100948.69;5039128;28;20030;-70
2023/08/28 02:06:31;;;;;;;8.32;7.63;;;;;;;11.32;100.00;100942.72;5049536;28;20032;-70
2023/08/28 02:08:56;;;;;;;8.68;7.88;;;;;;;11.36;100.00;100938.94;5041783;28;20061;-70
2023/08/28 02:11:21;;;;;;;8.27;7.47;;;;;;;11.32;100.00;100942.72;5044514;28;20479;-69
2023/08/28 02:13:47;;;;;;;8.48;7.45;;;;;;;11.26;100.00;100932.41;5044174;28;20026;-70
2023/08/28 02:16:12;;;;;;;8.70;7.18;;;;;;;11.25;100.00;100936.00;5040570;28;20025;-70
2023/08/28 02:18:39;;;;;;;8.10;7.30;;;;;;;11.24;100.00;100939.59;5040472;28;20033;-70
2023/08/28 02:21:04;;;;;;;8.23;7.30;;;;;;;11.20;100.00;100941.56;5043782;28;20036;-71
2023/08/28 02:23:30;;;;;;;9.80;8.05;;;;;;;11.18;100.00;100942.59;5046865;28;20029;-70
2023/08/28 02:25:55;;;;;;;9.07;7.75;;;;;;;11.18;100.00;100951.44;5045517;28;20081;-70
2023/08/28 02:28:21;;;;;;;8.85;8.05;;;;;;;11.19;100.00;100952.28;5041221;28;20083;-71
2023/08/28 02:30:49;;;;;;;9.32;8.20;;;;;;;11.16;100.00;100960.44;5044299;28;20013;-70
2023/08/28 02:33:15;;;;;;;9.73;8.80;;;;;;;11.13;100.00;100947.28;5037710;28;20120;-70
2023/08/28 02:35:40;;;;;;;11.55;9.35;;;;;;;11.16;100.00;100952.44;5036774;28;20108;-70
2023/08/28 02:38:08;;;;;;;10.27;9.27;;;;;;;11.15;100.00;100950.72;5036788;28;20210;-70
2023/08/28 02:40:38;;;;;;;9.95;9.00;;;;;;;11.13;100.00;100957.94;5035931;28;20044;-71
2023/08/28 02:43:09;;;;;;;10.55;9.35;;;;;;;11.12;100.00;100957.09;5038071;28;20021;-70
2023/08/28 02:45:43;;;;;;;12.07;10.82;;;;;;;11.11;100.00;100959.81;5032559;28;20035;-71
2023/08/28 02:48:11;;;;;;;10.48;9.35;;;;;;;11.08;100.00;100946.69;5043097;28;20021;-70
2023/08/28 02:50:37;;;;;;;10.40;9.27;;;;;;;11.08;100.00;100952.00;5039240;28;20068;-71
2023/08/28 02:53:03;;;;;;;10.68;9.27;;;;;;;11.05;100.00;100958.34;5039608;28;20025;-70
2023/08/28 02:55:30;;;;;;;10.43;9.50;;;;;;;10.92;100.00;100949.25;5040641;28;20033;-70
2023/08/28 02:57:55;;;;;;;10.07;9.07;;;;;;;10.96;100.00;100956.16;5040029;28;20060;-71
2023/08/28 03:00:21;;;;;;;10.98;8.77;;;;;;;10.96;100.00;100959.66;5053814;28;20091;-72
2023/08/28 03:02:47;;;;;;;9.77;8.85;;;;;;;10.92;100.00;100959.91;5045803;28;20032;-71
2023/08/28 03:05:13;;;;;;;10.00;9.00;;;;;;;10.91;100.00;100968.81;5042887;28;20029;-70
2023/08/28 03:07:39;;;;;;;8.90;8.10;;;;;;;10.87;100.00;100973.44;5045325;28;20039;-71
2023/08/28 03:10:05;;;;;;;10.30;9.30;;;;;;;10.85;100.00;100975.31;5038760;28;20047;-71
2023/08/28 03:12:30;;;;;;;9.82;8.82;;;;;;;10.84;100.00;100965.63;5042689;28;20037;-71
2023/08/28 03:14:56;;;;;;;9.65;8.75;;;;;;;10.85;100.00;100966.47;5044001;28;20068;-71
2023/08/28 03:17:21;;;;;;;9.50;8.68;;;;;;;10.81;100.00;100968.41;5040386;28;20142;-71
2023/08/28 03:19:50;;;;;;;10.75;9.18;;;;;;;10.80;100.00;100966.69;5036355;28;20341;-72
2023/08/28 03:22:15;;;;;;;10.23;9.30;;;;;;;10.83;100.00;100966.56;5039790;28;20112;-70
2023/08/28 03:24:41;;;;;;;10.65;8.52;;;;;;;10.82;100.00;100967.47;5037602;28;20041;-70
2023/08/28 03:27:07;;;;;;;9.82;8.93;;;;;;;10.80;100.00;100966.69;5042819;28;20170;-71
2023/08/28 03:29:32;;;;;;;9.73;8.80;;;;;;;10.77;100.00;100972.16;5036238;28;20056;-70
2023/08/28 03:31:58;;;;;;;9.95;9.00;;;;;;;10.73;100.00;100978.59;5036534;28;20080;-71
2023/08/28 03:34:23;;;;;;;9.98;9.05;;;;;;;10.72;100.00;100984.84;5034666;28;20021;-71
2023/08/28 03:36:48;;;;;;;9.80;8.80;;;;;;;10.69;100.00;100988.50;5037179;28;20025;-70
2023/08/28 03:39:13;;;;;;;10.23;9.10;;;;;;;10.69;100.00;100990.31;5040335;28;20055;-71
2023/08/28 03:41:39;;;;;;;9.55;8.75;;;;;;;10.68;100.00;101005.44;5037369;28;20035;-70
2023/08/28 03:44:04;;;;;;;9.55;8.65;;;;;;;10.65;100.00;101000.25;5043011;28;20075;-71
2023/08/28 03:46:30;;;;;;;10.35;9.38;;;;;;;10.68;100.00;101009.91;5040121;28;20471;-70
2023/08/28 03:48:55;;;;;;;9.55;8.55;;;;;;;10.69;100.00;101003.63;5044034;28;20037;-70
2023/08/28 03:51:20;;;;;;;10.48;9.20;;;;;;;10.74;100.00;101012.25;5038172;28;20059;-71
2023/08/28 03:53:46;;;;;;;9.90;9.00;;;;;;;10.81;100.00;101016.34;5045552;28;20103;-70
2023/08/28 03:56:13;;;;;;;9.88;8.60;;;;;;;10.88;100.00;101020.44;5037663;28;20088;-70
2023/08/28 03:58:38;;;;;;;9.85;8.85;;;;;;;10.91;100.00;101030.94;5056412;28;20048;-69
2023/08/28 04:01:04;;;;;;;9.93;8.93;;;;;;;11.07;100.00;101024.84;5040978;28;20027;-71
2023/08/28 04:03:29;;;;;;;9.27;8.40;;;;;;;11.11;100.00;101018.41;5039577;28;20039;-70
2023/08/28 04:05:58;;;;;;;9.10;8.23;;;;;;;11.17;100.00;101023.47;5039410;28;20025;-72
2023/08/28 04:08:23;;;;;;;9.75;7.70;;;;;;;11.18;100.00;101012.72;5036680;28;20039;-71
2023/08/28 04:10:49;;;;;;;9.25;8.35;;;;;;;11.22;100.00;101027.59;5035318;28;20028;-71
2023/08/28 04:13:14;;;;;;;8.50;7.68;;;;;;;11.27;100.00;101023.84;5043026;28;20025;-70
2023/08/28 04:15:39;;;;;;;10.05;9.02;;;;;;;11.32;100.00;101025.31;5044983;28;20095;-71
2023/08/28 04:18:05;;;;;;;10.32;8.57;;;;;;;11.38;100.00;101026.84;5046131;28;20496;-70
2023/08/28 04:20:30;;;;;;;9.82;8.65;;;;;;;11.29;100.00;101028.16;5042200;28;20029;-71
2023/08/28 04:22:56;;;;;;;9.45;8.55;;;;;;;11.38;100.00;101027.69;5039244;28;20100;-70
2023/08/28 04:25:21;;;;;;;8.48;7.68;;;;;;;11.40;100.00;101028.47;5043745;28;20074;-69
2023/08/28 04:27:47;;;;;;;8.30;7.53;;;;;;;11.40;100.00;101024.94;5047571;28;20032;-71
2023/08/28 04:30:13;;;;;;;9.30;7.95;;;;;;;11.41;100.00;101018.66;5057885;28;20048;-70
2023/08/28 04:32:39;;;;;;;8.75;7.93;;;;;;;11.42;100.00;101021.25;5051084;28;20024;-71
2023/08/28 04:35:06;;;;;;;10.40;8.02;;;;;;;11.43;100.00;101022.97;5051404;28;20056;-70
2023/08/28 04:37:32;;;;;;;10.68;8.50;;;;;;;11.46;100.00;101028.16;5048915;28;20101;-71
2023/08/28 04:39:58;;;;;;;7.93;7.13;;;;;;;11.47;100.00;101024.53;5041500;28;20028;-72
2023/08/28 04:42:24;;;;;;;9.07;8.10;;;;;;;11.47;100.00;101016.56;5043960;28;20028;-71
2023/08/28 04:44:49;;;;;;;9.68;8.43;;;;;;;11.49;100.00;101016.47;5039848;28;20135;-72
2023/08/28 04:47:15;;;;;;;9.02;8.23;;;;;;;11.52;100.00;101013.66;5051964;28;20027;-71
2023/08/28 04:49:41;;;;;;;12.05;10.95;;;;;;;11.58;100.00;101013.34;5045835;28;20021;-71
2023/08/28 04:52:06;;;;;;;11.43;9.88;;;;;;;11.57;100.00;101002.72;5051738;28;20503;-71
2023/08/28 04:54:36;;;;;;;10.27;9.30;;;;;;;11.63;100.00;101010.44;5042794;28;20035;-71
2023/08/28 04:57:01;;;;;;;10.35;9.40;;;;;;;11.68;100.00;101001.22;5051191;28;20105;-71
2023/08/28 04:59:27;;;;;;;9.98;8.98;;;;;;;11.68;100.00;101003.03;5044166;28;20074;-70
2023/08/28 05:01:52;;;;;;;9.77;8.88;;;;;;;11.70;100.00;100993.16;5046498;28;20274;-71
2023/08/28 05:04:20;;;;;;;9.95;8.95;;;;;;;11.77;100.00;101002.56;5058218;28;20116;-70
2023/08/28 05:06:46;;;;;;;9.35;8.38;;;;;;;11.83;100.00;100998.72;5041470;28;20534;-71
2023/08/28 05:09:11;;;;;;;11.02;8.80;;;;;;;11.87;100.00;100992.28;5045365;28;20024;-71
2023/08/28 05:11:37;;;;;;;11.32;10.23;;;;;;;11.87;100.00;100994.94;5043268;28;20626;-71
2023/08/28 05:14:03;;;;;;;10.85;9.73;;;;;;;11.93;100.00;100995.50;5051954;28;20142;-71
2023/08/28 05:16:28;;;;;;;11.10;10.02;;;;;;;11.98;100.00;100989.91;5051384;28;20442;-71
2023/08/28 05:18:53;;;;;;;11.20;10.10;;;;;;;11.99;100.00;100986.28;5041989;28;20087;-72
2023/08/28 05:21:19;;;;;;;10.50;9.60;;;;;;;12.04;100.00;100994.91;5045428;28;20032;-71
2023/08/28 05:23:44;;;;;;;10.50;9.45;;;;;;;12.07;100.00;100993.88;5042636;28;20040;-72
2023/08/28 05:26:10;;;;;;;10.70;9.70;;;;;;;12.14;100.00;101000.59;5047186;28;20471;-71
2023/08/28 05:28:37;;;;;;;10.20;9.30;;;;;;;12.22;100.00;100993.03;5045993;28;20017;-72
2023/08/28 05:31:03;;;;;;;10.48;9.50;;;;;;;12.30;100.00;100997.94;5048802;28;20029;-72
2023/08/28 05:33:28;;;;;;;10.80;9.82;;;;;;;12.40;100.00;101001.81;5044655;28;20455;-72
2023/08/28 05:35:53;;;;;;;11.23;10.23;;;;;;;12.50;100.00;100989.69;5039273;28;20490;-71
2023/08/28 05:38:20;;;;;;;10.30;9.30;;;;;;;12.60;100.00;101008.72;5041450;28;20515;-71
2023/08/28 05:40:45;;;;;;;10.88;9.88;;;;;;;12.67;100.00;100994.94;5041602;28;20029;-71
2023/08/28 05:43:11;;;;;;;11.45;9.77;;;;;;;12.79;100.00;100992.47;5042099;28;20192;-73
2023/08/28 05:45:37;;;;;;;11.93;10.02;;;;;;;12.84;100.00;100985.09;5040978;28;20471;-71
2023/08/28 05:48:02;;;;;;;11.68;10.48;;;;;;;13.00;100.00;100990.38;5041700;28;20451;-72
2023/08/28 05:50:28;;;;;;;11.48;10.38;;;;;;;13.19;100.00;100994.56;5042466;28;20082;-71
2023/08/28 05:52:53;;;;;;;11.40;10.35;;;;;;;13.43;100.00;100997.63;5036795;28;20045;-72
2023/08/28 05:55:18;;;;;;;10.90;9.80;;;;;;;13.72;100.00;100997.66;5044538;28;20045;-73
2023/08/28 05:57:44;;;;;;;10.40;9.50;;;;;;;13.91;100.00;100995.53;5047823;28;20025;-72
2023/08/28 06:00:12;;;;;;;11.60;10.45;;;;;;;14.15;100.00;100986.94;5042110;28;20044;-72
2023/08/28 06:02:38;;;;;;;10.13;9.23;;;;;;;14.28;100.00;100993.22;5042408;28;20321;-71
2023/08/28 06:05:04;;;;;;;11.13;10.00;;;;;;;14.29;100.00;100989.59;5041308;28;20048;-71
2023/08/28 06:07:30;;;;;;;10.45;9.25;;;;;;;14.41;100.00;100998.66;5036547;28;20308;-72
2023/08/28 06:09:56;;;;;;;10.30;9.30;;;;;;;14.63;100.00;100992.78;5044095;28;20416;-71
2023/08/28 06:12:21;;;;;;;10.00;9.00;;;;;;;14.69;100.00;100990.59;5041822;28;20222;-71
2023/08/28 06:14:46;;;;;;;9.73;8.65;;;;;;;14.74;100.00;100994.78;5042467;28;20039;-70
2023/08/28 06:17:12;;;;;;;10.48;9.35;;;;;;;14.69;100.00;100992.41;5040254;28;20368;-71
2023/08/28 06:19:37;;;;;;;9.65;8.75;;;;;;;14.68;100.00;100999.59;5041956;28;20621;-71
2023/08/28 06:22:06;;;;;;;10.40;9.45;;;;;;;14.62;100.00;101008.00;5038726;28;20025;-72
2023/08/28 06:24:32;;;;;;;10.57;9.55;;;;;;;14.65;100.00;101002.47;5051127;28;20032;-71
2023/08/28 06:26:57;;;;;;;10.18;9.07;;;;;;;14.81;100.00;100999.63;5037425;28;20165;-70
2023/08/28 06:29:23;;;;;;;11.60;9.30;;;;;;;15.09;100.00;101003.13;5033528;28;20029;-72
2023/08/28 06:31:49;;;;;;;9.80;8.60;;;;;;;15.13;100.00;100997.50;5044422;28;20165;-71
2023/08/28 06:34:14;;;;;;;9.70;8.70;;;;;;;15.36;100.00;101003.09;5041037;28;20111;-71
2023/08/28 06:36:40;;;;;;;9.52;8.63;;;;;;;15.64;100.00;101002.06;5044269;28;20025;-70
2023/08/28 06:39:07;;;;;;;8.73;7.82;;;;;;;15.75;100.00;100996.81;5038179;28;20357;-71
2023/08/28 06:41:32;;;;;;;8.60;7.70;;;;;;;16.04;100.00;101000.13;5048919;28;20407;-71
2023/08/28 06:43:57;;;;;;;8.00;7.20;;;;;;;16.20;100.00;101002.59;5041421;28;20036;-71
2023/08/28 06:46:23;;;;;;;8.45;7.65;;;;;;;16.38;100.00;101003.09;5044982;28;20149;-71
2023/08/28 06:48:51;;;;;;;8.30;7.50;;;;;;;16.60;100.00;101014.00;5044786;28;20120;-70
2023/08/28 06:51:17;;;;;;;9.15;7.07;;;;;;;16.72;100.00;101016.72;5040964;28;20049;-72
2023/08/28 06:53:43;;;;;;;7.93;7.13;;;;;;;17.22;100.00;101020.19;5061133;28;20461;-71
2023/08/28 06:56:08;;;;;;;7.13;6.43;;;;;;;17.55;100.00;101022.13;5045151;28;20600;-72
2023/08/28 06:58:34;;;;;;;6.88;6.20;;;;;;;18.11;100.00;101011.47;5043562;28;21462;-72
2023/08/28 07:00:59;;;;;;;6.65;5.82;;;;;;;18.64;97.04;101025.13;5047954;28;20036;-72
2023/08/28 07:03:24;;;;;;;7.07;6.13;;;;;;;18.86;96.19;101032.38;5053678;28;20029;-71
2023/08/28 07:05:50;;;;;;;6.20;5.60;;;;;;;18.84;96.10;101034.31;5038095;28;20036;-72
2023/08/28 07:08:15;;;;;;;7.78;5.78;;;;;;;18.69;95.31;101040.94;5046621;28;20032;-71
2023/08/28 07:10:42;;;;;;;6.43;5.80;;;;;;;18.42;96.61;101040.34;5039569;28;20115;-71
2023/08/28 07:13:07;;;;;;;7.55;5.75;;;;;;;18.27;97.18;101036.22;5039876;28;20522;-71
2023/08/28 07:15:33;;;;;;;6.82;6.05;;;;;;;18.02;96.75;101039.16;5045018;28;20033;-71
2023/08/28 07:17:58;;;;;;;6.80;6.07;;;;;;;17.92;98.51;101036.31;5044878;28;20506;-71
2023/08/28 07:20:23;;;;;;;6.25;5.57;;;;;;;17.81;98.65;101033.63;5040188;28;20047;-71
2023/08/28 07:22:49;;;;;;;6.18;5.57;;;;;;;17.79;100.00;101032.88;5045389;28;20029;-72
2023/08/28 07:25:16;;;;;;;6.45;5.85;;;;;;;17.74;100.00;101027.84;5056252;28;20028;-71
2023/08/28 07:27:42;;;;;;;6.65;6.05;;;;;;;17.75;100.00;101034.94;5042595;28;20111;-72
2023/08/28 07:30:08;;;;;;;7.63;5.70;;;;;;;17.81;100.00;101034.47;5047679;28;20311;-71
2023/08/28 07:32:33;;;;;;;6.05;5.45;;;;;;;17.83;100.00;101028.97;5037407;28;20392;-71
2023/08/28 07:35:00;;;;;;;8.18;6.18;;;;;;;17.81;98.79;101018.31;5037824;28;20303;-71
2023/08/28 07:37:33;;;;;;;6.93;6.13;;;;;;;17.65;100.00;101029.38;5039432;28;20078;-71
2023/08/28 07:39:59;;;;;;;7.65;6.85;;;;;;;17.59;100.00;101034.38;5041455;28;20020;-71
2023/08/28 07:42:25;;;;;;;8.50;7.32;;;;;;;17.63;100.00;101023.25;5042349;28;20083;-72
2023/08/28 07:44:50;;;;;;;6.95;6.28;;;;;;;18.14;100.00;101027.38;5045204;28;20024;-72
2023/08/28 07:47:16;;;;;;;7.22;6.53;;;;;;;18.58;97.96;101026.50;5041714;28;20032;-74
2023/08/28 07:49:43;;;;;;;7.43;6.47;;;;;;;19.07;93.89;101027.03;5046110;28;20451;-72
2023/08/28 07:52:08;;;;;;;7.65;6.75;;;;;;;19.84;92.07;101022.22;5043968;28;20623;-72
2023/08/28 07:54:34;;;;;;;6.32;5.72;;;;;;;20.44;87.79;101029.56;5041022;28;20021;-70
2023/08/28 07:56:59;;;;;;;7.10;6.50;;;;;;;20.56;84.52;101033.91;5038701;28;20260;-70
2023/08/28 07:59:24;;;;;;;8.93;6.53;;;;;;;20.20;85.67;101032.63;5037001;28;20048;-70
2023/08/28 08:01:50;;;;;;;6.95;6.25;;;;;;;20.02;86.17;101029.69;5036872;28;20021;-70
2023/08/28 08:04:15;;;;;;;7.43;6.25;;;;;;;20.73;84.39;101032.41;5043268;28;20055;-72
2023/08/28 08:06:41;;;;;;;6.10;5.50;;;;;;;21.48;81.01;101031.75;5041754;28;20027;-71
2023/08/28 08:09:06;;;;;;;6.32;4.97;;;;;;;21.94;76.62;101032.81;5043431;28;20025;-72
2023/08/28 08:11:34;;;;;;;5.15;4.75;;;;;;;21.84;75.90;101032.84;5045826;28;20037;-71
2023/08/28 08:14:00;;;;;;;5.53;5.03;;;;;;;21.85;77.75;101037.25;5061024;28;20033;-72
2023/08/28 08:16:25;;;;;;;4.97;4.53;;;;;;;21.82;75.00;101037.56;5043693;28;20194;-72
2023/08/28 08:18:50;;;;;;;5.53;5.03;;;;;;;21.41;75.93;101035.22;5043290;28;20037;-72
2023/08/28 08:21:16;;;;;;;5.70;4.88;;;;;;;21.21;78.81;101046.00;5044810;28;20491;-72
2023/08/28 08:23:41;;;;;;;7.07;4.97;;;;;;;21.10;81.09;101046.97;5041643;28;20495;-72
2023/08/28 08:26:08;;;;;;;15.45;5.78;;;;;;;21.08;80.69;101038.16;5045384;28;20044;-71
2023/08/28 08:28:33;;;;;;;5.38;4.35;;;;;;;20.87;79.22;101038.28;5035878;28;20112;-73
2023/08/28 08:30:58;;;;;;;5.50;5.00;;;;;;;20.71;79.26;101039.81;5051313;28;20211;-71
2023/08/28 08:33:24;;;;;;;5.30;4.80;;;;;;;20.84;81.34;101043.09;5042847;28;20494;-71
2023/08/28 08:35:50;;;;;;;7.32;5.30;;;;;;;21.03;79.75;101051.25;5044548;28;20091;-72
2023/08/28 08:38:16;;;;;;;4.90;4.40;;;;;;;21.17;78.20;101052.69;5041062;28;20024;-73
2023/08/28 08:40:43;;;;;;;5.57;4.50;;;;;;;21.32;79.77;101056.72;5041213;28;20545;-74
2023/08/28 08:43:09;;;;;;;4.90;4.35;;;;;;;21.51;77.86;101042.31;5037418;28;20118;-76
2023/08/28 08:45:37;;;;;;;7.90;5.30;;;;;;;21.38;75.27;101055.28;5037377;28;20029;-72
2023/08/28 08:48:06;;;;;;;5.47;4.95;;;;;;;21.17;78.43;101052.69;5044604;28;20033;-71
2023/08/28 08:50:35;;;;;;;6.47;5.38;;;;;;;20.99;78.50;101060.66;5045271;28;20153;-71
2023/08/28 08:53:09;;;;;;;6.05;5.45;;;;;;;20.64;79.72;101055.72;5039709;28;20120;-71
2023/08/28 08:55:45;;;;;;;6.68;5.07;;;;;;;20.48;81.32;101044.53;5044196;28;20090;-72
2023/08/28 08:58:13;;;;;;;9.20;6.30;;;;;;;20.25;83.07;101047.44;5034963;28;20032;-73
2023/08/28 09:00:43;;;;;;;6.70;6.07;;;;;;;19.95;83.20;101042.03;5033469;28;20372;-72
2023/08/28 09:03:09;;;;;;;6.20;5.70;;;;;;;19.61;83.88;101034.16;5055734;28;20104;-71
2023/08/28 09:05:35;;;;;;;7.18;6.30;;;;;;;19.33;85.66;101041.88;5037259;28;20583;-72
2023/08/28 09:08:04;;;;;;;6.10;5.50;;;;;;;19.00;86.72;101045.53;5056900;28;20039;-71
2023/08/28 09:10:30;;;;;;;6.80;6.00;;;;;;;18.77;90.80;101043.88;5043866;28;20081;-72
2023/08/28 09:12:56;;;;;;;11.45;6.22;;;;;;;18.57;93.58;101042.81;5045214;28;20048;-71
2023/08/28 09:15:22;;;;;;;7.38;6.38;;;;;;;18.35;96.15;101036.47;5046145;28;20021;-72
2023/08/28 09:17:48;;;;;;;8.00;7.30;;;;;;;17.99;100.00;101032.16;5047111;28;20080;-70
2023/08/28 09:20:16;;;;;;;9.65;8.75;;;;;;;17.55;100.00;101041.81;5059940;28;20507;-71
2023/08/28 09:22:45;;;;;;;10.18;9.27;;;;;;;17.24;100.00;101040.63;5037872;28;20029;-72
2023/08/28 09:25:10;;;;;;;9.35;8.50;;;;;;;17.04;100.00;101044.81;5054831;28;20052;-71
2023/08/28 09:27:42;;;;;;;9.10;8.23;;;;;;;16.83;100.00;101049.09;5043273;28;20493;-72
2023/08/28 09:30:08;;;;;;;9.13;8.32;;;;;;;16.85;100.00;101044.47;5048901;28;21381;-71
2023/08/28 09:32:33;;;;;;;8.85;8.10;;;;;;;16.82;100.00;101040.19;5042020;28;20487;-69
2023/08/28 09:34:59;;;;;;;8.25;7.55;;;;;;;16.90;100.00;101045.84;5039916;28;20029;-70
2023/08/28 09:37:27;;;;;;;8.43;7.72;;;;;;;17.20;100.00;101043.66;5038311;28;20542;-71
2023/08/28 09:39:59;;;;;;;8.10;7.40;;;;;;;17.57;100.00;101050.66;5042917;28;20032;-70
2023/08/28 09:42:24;;;;;;;8.05;7.40;;;;;;;17.96;100.00;101045.00;5044967;28;20039;-70
2023/08/28 09:44:51;;;;;;;7.50;6.80;;;;;;;18.44;100.00;101048.34;5045278;28;20032;-69
2023/08/28 09:47:23;;;;;;;7.38;6.78;;;;;;;18.97;96.83;101044.94;5044636;28;20028;-70
2023/08/28 09:49:51;;;;;;;7.20;6.43;;;;;;;19.40;92.06;101050.31;5038752;28;20530;-70
2023/08/28 09:52:26;;;;;;;6.30;5.47;;;;;;;19.90;89.50;101053.25;5042739;28;20094;-71
2023/08/28 09:55:04;;;;;;;4.40;3.92;;;;;;;20.33;86.87;101055.72;5042353;28;20063;-69
2023/08/28 09:57:31;;;;;;;4.00;3.70;;;;;;;20.77;82.61;101052.75;5042299;28;20170;-72
2023/08/28 09:59:56;;;;;;;3.60;3.30;;;;;;;21.25;78.33;101057.41;5044177;28;20116;-71
2023/08/28 10:02:24;;;;;;;3.35;3.00;;;;;;;21.67;76.71;101052.56;5044749;28;20195;-71
2023/08/28 10:04:52;;;;;;;3.55;3.22;;;;;;;22.08;76.26;101045.91;5036950;28;20036;-71
2023/08/28 10:07:22;;;;;;;3.50;3.20;;;;;;;22.37;75.56;101051.25;5040846;28;20124;-72
2023/08/28 10:09:53;;;;;;;3.03;2.38;;;;;;;22.34;71.77;101046.13;5045477;28;20021;-70
2023/08/28 10:12:21;;;;;;;3.00;2.70;;;;;;;22.08;72.50;101045.91;5035413;28;20033;-71
2023/08/28 10:14:48;;;;;;;3.47;2.28;;;;;;;21.94;71.98;101042.81;5045717;28;20153;-72
2023/08/28 10:17:15;;;;;;;4.03;2.60;;;;;;;21.85;76.42;101045.38;5040262;28;20337;-71
2023/08/28 10:19:50;;;;;;;3.67;2.90;;;;;;;21.77;74.99;101052.53;5043926;28;20056;-71
2023/08/28 10:22:15;;;;;;;3.35;2.50;;;;;;;21.72;71.99;101052.97;5046591;28;20041;-71
2023/08/28 10:24:42;;;;;;;2.60;2.08;;;;;;;21.59;72.94;101045.16;5046831;28;20032;-71
2023/08/28 10:27:10;;;;;;;3.00;1.90;;;;;;;21.68;75.48;101050.69;5047196;28;20057;-71
2023/08/28 10:29:37;;;;;;;4.18;2.78;;;;;;;21.44;70.75;101048.44;5048792;28;20573;-72
2023/08/28 10:32:08;;;;;;;3.05;2.65;;;;;;;21.27;74.82;101052.69;5047538;28;20020;-71
2023/08/28 10:34:36;;;;;;;4.85;2.60;;;;;;;21.25;74.79;101043.88;5046734;28;20133;-72
2023/08/28 10:37:05;;;;;;;6.15;2.30;;;;;;;21.23;73.12;101054.81;5045020;28;20111;-72
2023/08/28 10:39:31;;;;;;;3.80;2.60;;;;;;;20.99;74.32;101055.25;5046501;28;20487;-73
2023/08/28 10:41:57;;;;;;;3.55;2.53;;;;;;;20.80;73.03;101047.94;5042281;28;20202;-71
2023/08/28 10:44:23;;;;;;;3.30;2.40;;;;;;;20.74;76.43;101044.94;5043441;28;20059;-71
2023/08/28 10:46:51;;;;;;;2.88;2.33;;;;;;;20.79;74.26;101034.56;5047320;28;20020;-73
2023/08/28 10:49:18;;;;;;;3.13;2.17;;;;;;;20.84;72.73;101041.25;5047097;28;20029;-72
2023/08/28 10:51:44;;;;;;;2.58;2.10;;;;;;;21.04;71.85;101033.16;5048140;28;20044;-72
2023/08/28 10:54:10;;;;;;;4.05;1.58;;;;;;;21.21;72.37;101037.88;5048924;28;20102;-73
2023/08/28 10:56:38;;;;;;;2.15;1.75;;;;;;;21.38;73.07;101031.78;5040121;28;20487;-74
2023/08/28 10:59:23;;;;;;;2.45;1.65;;;;;;;21.83;74.02;101027.59;5040481;28;20136;-73
2023/08/28 11:01:52;;;;;;;1.83;1.40;;;;;;;22.09;67.56;101033.22;5034284;28;20033;-73
2023/08/28 11:04:18;;;;;;;1.90;1.60;;;;;;;22.20;64.82;101030.34;5036879;28;20168;-71
2023/08/28 11:06:45;;;;;;;1.60;1.45;;;;;;;22.42;63.05;101022.81;5056804;28;20116;-73
2023/08/28 11:09:26;;;;;;;1.73;1.42;;;;;;;22.95;66.04;101031.09;5037245;28;20126;-74
2023/08/28 11:11:51;;;;;;;2.72;1.25;;;;;;;23.02;63.33;101028.63;5046166;28;20060;-74
2023/08/28 11:14:16;;;;;;;1.80;1.02;;;;;;;23.78;62.48;101022.66;5041786;28;20040;-73